createdAt,value
2023-03-18T00:00:01.857Z,14.60
2023-03-18T00:00:34.245Z,14.50
2023-03-18T00:01:07.643Z,15.07
2023-03-18T00:01:39.825Z,14.40
2023-03-18T00:02:11.866Z,12.47
2023-03-18T00:02:44.690Z,12.97
2023-03-18T00:03:16.576Z,13.60
2023-03-18T00:03:49.078Z,13.40
2023-03-18T00:04:21.256Z,13.50
2023-03-18T00:04:53.729Z,14.17
2023-03-18T00:05:25.522Z,13.43
2023-03-18T00:06:15.903Z,13.47
2023-03-18T00:06:48.040Z,13.23
2023-03-18T00:07:20.259Z,14.20
2023-03-18T00:07:52.789Z,14.47
2023-03-18T00:08:24.505Z,13.27
2023-03-18T00:08:57.316Z,12.10
2023-03-18T00:09:29.069Z,12.00
2023-03-18T00:10:01.389Z,12.60
2023-03-18T00:10:35.223Z,12.93
2023-03-18T00:11:10.120Z,12.47
2023-03-18T00:11:42.269Z,11.43
2023-03-18T00:12:14.076Z,12.03
2023-03-18T00:12:46.308Z,12.23
2023-03-18T00:13:18.750Z,11.80
2023-03-18T00:13:50.700Z,11.37
2023-03-18T00:14:23.158Z,11.90
2023-03-18T00:14:54.921Z,12.43
2023-03-18T00:15:26.683Z,12.47
2023-03-18T00:15:58.443Z,12.50
2023-03-18T00:16:30.152Z,13.03
2023-03-18T00:17:02.051Z,13.17
2023-03-18T00:17:33.860Z,12.37
2023-03-18T00:18:05.645Z,12.27
2023-03-18T00:18:38.566Z,12.17
2023-03-18T00:19:10.326Z,12.97
2023-03-18T00:19:42.598Z,13.10
2023-03-18T00:20:18.371Z,12.17
2023-03-18T00:20:50.426Z,12.63
2023-03-18T00:21:23.438Z,12.47
2023-03-18T00:21:55.934Z,12.50
2023-03-18T00:22:28.409Z,12.47
2023-03-18T00:23:00.346Z,13.13
2023-03-18T00:23:33.666Z,13.10
2023-03-18T00:24:06.060Z,12.77
2023-03-18T00:24:37.818Z,12.40
2023-03-18T00:25:14.307Z,12.93
2023-03-18T00:25:49.046Z,13.00
2023-03-18T00:26:20.838Z,12.37
2023-03-18T00:26:52.540Z,11.20
2023-03-18T00:27:24.329Z,11.73
2023-03-18T00:27:56.053Z,11.97
2023-03-18T00:28:29.023Z,11.97
2023-03-18T00:29:00.944Z,12.43
2023-03-18T00:29:32.622Z,12.27
2023-03-18T00:30:06.020Z,11.83
2023-03-18T00:30:40.094Z,13.00
2023-03-18T00:31:13.738Z,12.17
2023-03-18T00:31:46.325Z,12.97
2023-03-18T00:32:18.175Z,12.90
2023-03-18T00:32:49.970Z,11.90
2023-03-18T00:33:21.817Z,12.17
2023-03-18T00:33:53.559Z,12.37
2023-03-18T00:34:26.062Z,12.77
2023-03-18T00:34:57.969Z,12.60
2023-03-18T00:35:30.972Z,12.57
2023-03-18T00:36:04.202Z,11.97
2023-03-18T00:36:36.501Z,12.37
2023-03-18T00:37:08.471Z,13.47
2023-03-18T00:37:40.264Z,13.07
2023-03-18T00:38:20.760Z,12.43
2023-03-18T00:38:57.774Z,12.73
2023-03-18T00:39:32.940Z,12.77
2023-03-18T00:40:07.896Z,12.97
2023-03-18T00:40:53.630Z,12.63
2023-03-18T00:41:29.750Z,13.00
2023-03-18T00:42:10.461Z,12.17
2023-03-18T00:42:47.608Z,13.03
2023-03-18T00:43:22.793Z,13.40
2023-03-18T00:43:55.240Z,12.57
2023-03-18T00:44:27.392Z,13.17
2023-03-18T00:44:59.219Z,12.40
2023-03-18T00:45:31.584Z,12.70
2023-03-18T00:46:03.677Z,12.53
2023-03-18T00:46:37.894Z,13.37
2023-03-18T00:47:09.729Z,14.03
2023-03-18T00:47:42.181Z,14.80
2023-03-18T00:48:14.588Z,14.10
2023-03-18T00:48:47.307Z,14.73
2023-03-18T00:49:19.995Z,14.93
2023-03-18T00:49:51.768Z,14.53
2023-03-18T00:50:23.830Z,13.83
2023-03-18T00:50:56.527Z,13.70
2023-03-18T00:51:31.645Z,13.17
2023-03-18T00:52:03.454Z,13.73
2023-03-18T00:52:36.166Z,14.03
2023-03-18T00:53:08.375Z,13.70
2023-03-18T00:53:42.740Z,13.50
2023-03-18T00:54:18.198Z,13.60
2023-03-18T00:54:50.307Z,13.87
2023-03-18T00:55:22.755Z,12.70
2023-03-18T00:55:55.443Z,11.97
2023-03-18T00:56:29.524Z,12.90
2023-03-18T00:57:01.808Z,13.80
2023-03-18T00:57:33.580Z,13.40
2023-03-18T00:58:05.307Z,12.87
2023-03-18T00:58:37.282Z,13.77
2023-03-18T00:59:09.068Z,12.67
2023-03-18T00:59:41.228Z,13.53
2023-03-18T01:00:17.136Z,13.43
2023-03-18T01:00:49.007Z,12.90
2023-03-18T01:01:22.405Z,13.37
2023-03-18T01:01:54.261Z,13.07
2023-03-18T01:02:28.493Z,13.07
2023-03-18T01:03:00.266Z,12.33
2023-03-18T01:03:33.955Z,12.20
2023-03-18T01:04:06.458Z,12.13
2023-03-18T01:04:38.338Z,12.40
2023-03-18T01:05:13.487Z,13.30
2023-03-18T01:05:45.402Z,13.20
2023-03-18T01:06:22.657Z,12.87
2023-03-18T01:06:54.410Z,13.93
2023-03-18T01:07:26.276Z,12.87
2023-03-18T01:07:58.737Z,13.00
2023-03-18T01:08:31.924Z,12.97
2023-03-18T01:09:05.311Z,13.53
2023-03-18T01:09:37.294Z,12.50
2023-03-18T01:10:10.284Z,13.77
2023-03-18T01:10:42.108Z,14.23
2023-03-18T01:11:13.830Z,14.33
2023-03-18T01:11:45.597Z,13.67
2023-03-18T01:12:17.710Z,13.57
2023-03-18T01:12:49.571Z,13.10
2023-03-18T01:13:21.471Z,13.10
2023-03-18T01:13:53.641Z,13.97
2023-03-18T01:14:25.529Z,13.67
2023-03-18T01:14:58.152Z,13.97
2023-03-18T01:15:30.509Z,13.90
2023-03-18T01:16:03.378Z,14.03
2023-03-18T01:16:35.225Z,14.50
2023-03-18T01:17:08.417Z,14.47
2023-03-18T01:17:40.725Z,14.47
2023-03-18T01:18:12.470Z,13.53
2023-03-18T01:18:44.464Z,13.30
2023-03-18T01:19:16.249Z,13.03
2023-03-18T01:19:48.854Z,13.97
2023-03-18T01:20:21.197Z,13.23
2023-03-18T01:20:53.162Z,13.43
2023-03-18T01:21:25.578Z,13.73
2023-03-18T01:21:57.720Z,13.77
2023-03-18T01:22:29.510Z,13.50
2023-03-18T01:23:01.543Z,14.00
2023-03-18T01:23:33.249Z,14.13
2023-03-18T01:24:06.050Z,13.30
2023-03-18T01:24:37.750Z,13.57
2023-03-18T01:25:11.773Z,13.40
2023-03-18T01:25:47.097Z,13.30
2023-03-18T01:26:18.995Z,12.67
2023-03-18T01:26:50.908Z,12.23
2023-03-18T01:27:22.587Z,12.43
2023-03-18T01:27:54.445Z,12.77
2023-03-18T01:28:27.405Z,13.07
2023-03-18T01:28:59.681Z,13.33
2023-03-18T01:29:31.432Z,13.80
2023-03-18T01:30:06.649Z,13.23
2023-03-18T01:30:38.473Z,13.17
2023-03-18T01:31:10.379Z,13.60
2023-03-18T01:31:42.367Z,13.43
2023-03-18T01:32:14.167Z,13.33
2023-03-18T01:32:47.954Z,13.60
2023-03-18T01:33:19.922Z,13.70
2023-03-18T01:33:52.514Z,13.53
2023-03-18T01:34:25.166Z,14.40
2023-03-18T01:34:57.210Z,13.60
2023-03-18T01:35:28.957Z,13.90
2023-03-18T01:36:02.409Z,14.47
2023-03-18T01:36:34.254Z,13.70
2023-03-18T01:37:06.041Z,12.83
2023-03-18T01:37:38.098Z,13.10
2023-03-18T01:38:09.861Z,13.93
2023-03-18T01:38:42.495Z,13.17
2023-03-18T01:39:15.547Z,13.13
2023-03-18T01:39:47.432Z,13.37
2023-03-18T01:40:21.062Z,12.77
2023-03-18T01:40:54.691Z,13.37
2023-03-18T01:41:26.985Z,13.50
2023-03-18T01:41:59.676Z,12.80
2023-03-18T01:42:31.997Z,13.10
2023-03-18T01:43:17.814Z,13.23
2023-03-18T01:43:49.813Z,13.20
2023-03-18T01:44:25.625Z,12.93
2023-03-18T01:45:12.055Z,13.07
2023-03-18T01:45:52.668Z,14.43
2023-03-18T01:46:56.889Z,14.80
2023-03-18T01:47:28.632Z,13.20
2023-03-18T01:48:00.511Z,13.67
2023-03-18T01:48:40.132Z,13.40
2023-03-18T01:49:19.114Z,13.07
2023-03-18T01:49:52.541Z,13.17
2023-03-18T01:50:32.592Z,14.27
2023-03-18T01:51:09.120Z,13.03
2023-03-18T01:51:46.690Z,14.17
2023-03-18T01:52:27.186Z,13.60
2023-03-18T01:53:15.464Z,14.70
2023-03-18T01:53:50.333Z,14.77
2023-03-18T01:54:24.916Z,14.67
2023-03-18T01:55:08.624Z,14.37
2023-03-18T01:55:41.969Z,14.07
2023-03-18T01:56:14.647Z,13.97
2023-03-18T01:56:49.109Z,14.73
2023-03-18T01:57:22.878Z,14.47
2023-03-18T01:57:56.282Z,14.03
2023-03-18T01:58:34.319Z,14.07
2023-03-18T01:59:08.438Z,13.83
2023-03-18T01:59:42.429Z,14.23
2023-03-18T02:00:16.526Z,14.90
2023-03-18T02:01:02.448Z,14.80
2023-03-18T02:01:37.049Z,14.90
2023-03-18T02:02:14.135Z,14.73
2023-03-18T02:02:48.603Z,14.50
2023-03-18T02:03:22.298Z,14.47
2023-03-18T02:03:55.437Z,13.97
2023-03-18T02:04:32.730Z,13.90
2023-03-18T02:05:08.050Z,14.93
2023-03-18T02:05:40.954Z,14.27
2023-03-18T02:06:13.765Z,14.37
2023-03-18T02:06:45.698Z,14.37
2023-03-18T02:07:23.604Z,14.17
2023-03-18T02:07:55.733Z,14.07
2023-03-18T02:08:27.840Z,14.80
2023-03-18T02:09:00.566Z,14.17
2023-03-18T02:09:32.383Z,14.37
2023-03-18T02:10:18.379Z,14.73
2023-03-18T02:10:50.603Z,14.93
2023-03-18T02:12:30.543Z,14.17
2023-03-18T02:13:10.030Z,14.43
2023-03-18T02:13:44.059Z,14.07
2023-03-18T02:14:20.559Z,15.07
2023-03-18T02:14:53.842Z,14.93
2023-03-18T02:15:28.188Z,15.03
2023-03-18T02:16:08.945Z,14.50
2023-03-18T02:16:47.903Z,14.67
2023-03-18T02:17:25.303Z,15.30
2023-03-18T02:18:06.523Z,15.30
2023-03-18T02:18:45.776Z,14.80
2023-03-18T02:19:42.703Z,14.70
2023-03-18T02:21:05.138Z,15.73
2023-03-18T02:22:04.941Z,15.23
2023-03-18T02:22:54.472Z,15.03
2023-03-18T02:23:39.124Z,15.00
2023-03-18T02:24:19.994Z,15.40
2023-03-18T02:25:10.393Z,16.40
2023-03-18T02:26:10.396Z,18.93
2023-03-18T02:27:05.861Z,19.27
2023-03-18T02:27:42.232Z,17.40
2023-03-18T02:28:23.186Z,17.90
2023-03-18T02:29:01.418Z,17.50
2023-03-18T02:29:37.329Z,16.80
2023-03-18T02:30:23.888Z,16.37
2023-03-18T02:30:59.446Z,16.00
2023-03-18T02:31:32.465Z,16.17
2023-03-18T02:32:07.566Z,16.70
2023-03-18T02:32:41.413Z,16.83
2023-03-18T02:33:16.482Z,15.47
2023-03-18T02:33:48.326Z,15.70
2023-03-18T02:34:20.138Z,16.17
2023-03-18T02:34:51.904Z,16.13
2023-03-18T02:35:24.556Z,16.63
2023-03-18T02:36:06.085Z,17.37
2023-03-18T02:36:37.955Z,16.60
2023-03-18T02:37:10.568Z,16.13
2023-03-18T02:37:42.273Z,15.57
2023-03-18T02:38:14.138Z,15.83
2023-03-18T02:38:47.330Z,16.17
2023-03-18T02:39:19.096Z,15.33
2023-03-18T02:39:51.296Z,15.00
2023-03-18T02:40:30.063Z,15.50
2023-03-18T02:41:01.906Z,15.67
2023-03-18T02:41:35.995Z,15.63
2023-03-18T02:42:10.929Z,15.47
2023-03-18T02:42:42.853Z,15.20
2023-03-18T02:43:31.194Z,15.50
2023-03-18T02:44:03.372Z,17.27
2023-03-18T02:44:41.268Z,14.93
2023-03-18T02:46:09.548Z,14.43
2023-03-18T02:46:47.198Z,16.47
2023-03-18T02:47:22.886Z,16.33
2023-03-18T02:47:56.204Z,16.17
2023-03-18T02:48:37.687Z,16.50
2023-03-18T02:49:10.002Z,16.10
2023-03-18T02:49:41.778Z,15.47
2023-03-18T02:50:13.493Z,16.00
2023-03-18T02:50:45.689Z,15.97
2023-03-18T02:51:18.953Z,14.83
2023-03-18T02:51:51.711Z,15.67
2023-03-18T02:52:23.568Z,15.87
2023-03-18T02:52:55.297Z,16.23
2023-03-18T02:53:27.130Z,15.80
2023-03-18T02:54:07.063Z,15.90
2023-03-18T02:54:38.932Z,15.30
2023-03-18T02:55:10.712Z,15.70
2023-03-18T02:55:42.792Z,15.67
2023-03-18T02:56:15.102Z,16.13
2023-03-18T02:56:47.248Z,16.00
2023-03-18T02:57:19.018Z,14.87
2023-03-18T02:57:50.987Z,14.83
2023-03-18T02:58:22.817Z,14.43
2023-03-18T02:58:54.581Z,15.63
2023-03-18T02:59:26.713Z,15.87
2023-03-18T02:59:58.521Z,16.13
2023-03-18T03:00:30.667Z,16.23
2023-03-18T03:01:04.735Z,16.47
2023-03-18T03:01:37.769Z,16.27
2023-03-18T03:02:09.572Z,15.87
2023-03-18T03:02:41.470Z,16.57
2023-03-18T03:03:13.703Z,16.37
2023-03-18T03:03:46.172Z,16.30
2023-03-18T03:04:19.126Z,15.70
2023-03-18T03:04:51.862Z,15.33
2023-03-18T03:05:23.833Z,15.90
2023-03-18T03:05:56.519Z,16.70
2023-03-18T03:06:28.376Z,16.87
2023-03-18T03:07:01.595Z,15.87
2023-03-18T03:07:33.649Z,16.57
2023-03-18T03:08:05.739Z,15.87
2023-03-18T03:08:38.141Z,15.40
2023-03-18T03:09:14.001Z,15.73
2023-03-18T03:09:46.294Z,16.23
2023-03-18T03:10:18.058Z,15.83
2023-03-18T03:10:52.560Z,15.77
2023-03-18T03:11:24.797Z,15.27
2023-03-18T03:11:56.656Z,15.97
2023-03-18T03:12:28.711Z,15.80
2023-03-18T03:13:00.861Z,15.60
2023-03-18T03:13:32.809Z,14.97
2023-03-18T03:14:04.619Z,15.13
2023-03-18T03:14:36.916Z,14.90
2023-03-18T03:15:08.992Z,15.03
2023-03-18T03:15:40.790Z,16.27
2023-03-18T03:16:17.380Z,17.53
2023-03-18T03:16:49.669Z,16.37
2023-03-18T03:17:21.979Z,14.80
2023-03-18T03:17:54.775Z,14.83
2023-03-18T03:18:26.825Z,14.80
2023-03-18T03:18:58.990Z,14.47
2023-03-18T03:19:31.043Z,14.67
2023-03-18T03:20:06.381Z,15.07
2023-03-18T03:20:39.277Z,15.83
2023-03-18T03:21:13.335Z,15.83
2023-03-18T03:21:45.089Z,14.83
2023-03-18T03:22:17.468Z,15.17
2023-03-18T03:22:49.423Z,15.47
2023-03-18T03:23:21.377Z,16.63
2023-03-18T03:23:54.862Z,17.37
2023-03-18T03:24:26.735Z,16.90
2023-03-18T03:24:58.624Z,16.43
2023-03-18T03:25:31.120Z,17.07
2023-03-18T03:26:04.247Z,16.53
2023-03-18T03:26:36.062Z,14.93
2023-03-18T03:27:07.912Z,14.73
2023-03-18T03:27:39.660Z,15.80
2023-03-18T03:28:13.580Z,15.17
2023-03-18T03:28:46.442Z,15.33
2023-03-18T03:29:18.539Z,15.67
2023-03-18T03:29:50.321Z,15.37
2023-03-18T03:30:23.596Z,15.87
2023-03-18T03:30:57.089Z,14.90
2023-03-18T03:31:28.987Z,15.47
2023-03-18T03:32:02.034Z,15.30
2023-03-18T03:32:34.482Z,15.60
2023-03-18T03:33:07.216Z,16.47
2023-03-18T03:33:41.822Z,15.17
2023-03-18T03:34:13.550Z,15.20
2023-03-18T03:34:45.434Z,15.37
2023-03-18T03:35:19.469Z,15.47
2023-03-18T03:35:52.107Z,16.17
2023-03-18T03:36:23.918Z,16.23
2023-03-18T03:36:56.835Z,17.17
2023-03-18T03:37:28.612Z,17.70
2023-03-18T03:38:00.323Z,16.67
2023-03-18T03:38:32.684Z,15.60
2023-03-18T03:39:04.450Z,16.43
2023-03-18T03:39:36.230Z,16.03
2023-03-18T03:40:10.434Z,15.13
2023-03-18T03:40:42.405Z,16.40
2023-03-18T03:41:15.994Z,15.90
2023-03-18T03:41:48.553Z,15.37
2023-03-18T03:42:20.395Z,15.23
2023-03-18T03:42:52.228Z,15.27
2023-03-18T03:43:23.970Z,15.70
2023-03-18T03:43:55.829Z,16.50
2023-03-18T03:44:27.627Z,15.97
2023-03-18T03:44:59.935Z,15.57
2023-03-18T03:45:32.032Z,16.37
2023-03-18T03:46:04.179Z,15.50
2023-03-18T03:46:36.017Z,16.50
2023-03-18T03:47:08.553Z,17.63
2023-03-18T03:47:41.743Z,15.90
2023-03-18T03:48:13.784Z,15.77
2023-03-18T03:48:45.604Z,15.27
2023-03-18T03:49:19.293Z,15.57
2023-03-18T03:49:51.027Z,15.53
2023-03-18T03:50:23.760Z,15.67
2023-03-18T03:50:56.789Z,16.77
2023-03-18T03:51:29.404Z,16.20
2023-03-18T03:52:01.166Z,15.97
2023-03-18T03:52:33.618Z,16.57
2023-03-18T03:53:06.892Z,16.13
2023-03-18T03:53:39.476Z,15.53
2023-03-18T03:54:15.768Z,14.73
2023-03-18T03:54:47.520Z,15.73
2023-03-18T03:55:21.828Z,15.67
2023-03-18T03:55:55.939Z,15.57
2023-03-18T03:56:29.083Z,16.10
2023-03-18T03:57:01.383Z,15.20
2023-03-18T03:57:33.511Z,15.43
2023-03-18T03:58:05.317Z,15.83
2023-03-18T03:58:37.208Z,15.43
2023-03-18T03:59:10.301Z,15.97
2023-03-18T03:59:42.084Z,15.87
2023-03-18T04:00:18.742Z,16.23
2023-03-18T04:00:50.789Z,15.87
2023-03-18T04:01:22.581Z,14.70
2023-03-18T04:01:54.320Z,15.90
2023-03-18T04:02:27.682Z,15.90
2023-03-18T04:02:59.843Z,15.80
2023-03-18T04:03:31.602Z,15.00
2023-03-18T04:04:04.173Z,14.83
2023-03-18T04:04:36.256Z,15.73
2023-03-18T04:05:08.564Z,15.53
2023-03-18T04:05:41.711Z,15.53
2023-03-18T04:06:13.478Z,15.23
2023-03-18T04:06:45.236Z,15.27
2023-03-18T04:07:17.097Z,16.17
2023-03-18T04:07:49.301Z,15.27
2023-03-18T04:08:21.844Z,14.73
2023-03-18T04:08:53.578Z,14.17
2023-03-18T04:09:25.486Z,14.57
2023-03-18T04:09:57.451Z,14.90
2023-03-18T04:10:29.558Z,15.07
2023-03-18T04:11:01.381Z,15.73
2023-03-18T04:11:33.068Z,14.83
2023-03-18T04:12:05.716Z,15.53
2023-03-18T04:12:39.192Z,15.70
2023-03-18T04:13:11.651Z,14.77
2023-03-18T04:13:43.460Z,15.17
2023-03-18T04:14:15.264Z,15.77
2023-03-18T04:14:48.331Z,17.00
2023-03-18T04:15:22.586Z,16.07
2023-03-18T04:15:55.090Z,14.97
2023-03-18T04:16:26.866Z,15.13
2023-03-18T04:17:00.404Z,15.33
2023-03-18T04:17:32.600Z,15.40
2023-03-18T04:18:07.172Z,15.67
2023-03-18T04:18:39.340Z,15.00
2023-03-18T04:19:11.431Z,15.30
2023-03-18T04:19:43.204Z,14.97
2023-03-18T04:20:15.407Z,14.47
2023-03-18T04:20:47.963Z,14.93
2023-03-18T04:21:19.749Z,15.40
2023-03-18T04:21:52.069Z,16.10
2023-03-18T04:22:24.084Z,15.70
2023-03-18T04:22:55.859Z,15.50
2023-03-18T04:23:27.847Z,16.27
2023-03-18T04:24:04.119Z,16.13
2023-03-18T04:24:36.770Z,15.93
2023-03-18T04:25:10.888Z,16.20
2023-03-18T04:25:42.926Z,15.87
2023-03-18T04:26:14.678Z,15.67
2023-03-18T04:26:47.068Z,15.67
2023-03-18T04:27:18.888Z,15.03
2023-03-18T04:27:52.697Z,14.87
2023-03-18T04:28:24.800Z,14.83
2023-03-18T04:28:59.604Z,15.07
2023-03-18T04:29:32.430Z,14.73
2023-03-18T04:30:07.236Z,14.87
2023-03-18T04:30:38.963Z,14.23
2023-03-18T04:31:10.842Z,14.40
2023-03-18T04:31:42.701Z,15.17
2023-03-18T04:32:15.001Z,15.23
2023-03-18T04:32:46.827Z,14.23
2023-03-18T04:33:19.519Z,14.03
2023-03-18T04:33:51.657Z,13.70
2023-03-18T04:34:24.162Z,14.37
2023-03-18T04:34:56.160Z,14.23
2023-03-18T04:35:28.281Z,15.67
2023-03-18T04:36:00.033Z,14.57
2023-03-18T04:36:31.804Z,14.27
2023-03-18T04:37:03.930Z,14.07
2023-03-18T04:37:37.464Z,14.27
2023-03-18T04:38:09.777Z,14.60
2023-03-18T04:38:42.416Z,14.53
2023-03-18T04:39:14.157Z,14.53
2023-03-18T04:39:47.920Z,15.30
2023-03-18T04:40:20.165Z,14.10
2023-03-18T04:40:52.726Z,13.33
2023-03-18T04:41:24.611Z,13.80
2023-03-18T04:42:00.121Z,14.10
2023-03-18T04:42:32.317Z,14.60
2023-03-18T04:43:04.105Z,13.67
2023-03-18T04:43:36.053Z,12.97
2023-03-18T04:44:07.819Z,13.67
2023-03-18T04:44:39.917Z,13.70
2023-03-18T04:45:12.548Z,13.73
2023-03-18T04:45:45.049Z,13.23
2023-03-18T04:46:16.915Z,13.90
2023-03-18T04:46:48.945Z,13.87
2023-03-18T04:47:20.711Z,13.70
2023-03-18T04:47:52.883Z,13.43
2023-03-18T04:48:25.074Z,13.20
2023-03-18T04:48:58.451Z,12.80
2023-03-18T04:49:30.425Z,13.87
2023-03-18T04:50:04.210Z,13.17
2023-03-18T04:50:36.277Z,14.20
2023-03-18T04:51:09.558Z,13.03
2023-03-18T04:51:41.267Z,13.23
2023-03-18T04:52:13.020Z,12.90
2023-03-18T04:52:45.223Z,12.90
2023-03-18T04:53:17.210Z,12.93
2023-03-18T04:53:48.952Z,12.47
2023-03-18T04:54:20.752Z,12.30
2023-03-18T04:54:52.764Z,12.63
2023-03-18T04:55:24.685Z,13.80
2023-03-18T04:55:57.640Z,14.43
2023-03-18T04:56:29.378Z,14.30
2023-03-18T04:57:01.063Z,12.47
2023-03-18T04:57:35.665Z,12.23
2023-03-18T04:58:07.482Z,12.53
2023-03-18T04:58:39.252Z,13.33
2023-03-18T04:59:11.033Z,13.53
2023-03-18T04:59:43.735Z,13.13
2023-03-18T05:00:21.364Z,12.50
2023-03-18T05:00:53.435Z,12.57
2023-03-18T05:01:25.294Z,13.57
2023-03-18T05:01:57.413Z,12.67
2023-03-18T05:02:29.913Z,12.87
2023-03-18T05:03:02.258Z,13.23
2023-03-18T05:03:34.523Z,13.63
2023-03-18T05:04:06.714Z,13.03
2023-03-18T05:04:39.142Z,13.23
2023-03-18T05:05:11.283Z,13.20
2023-03-18T05:05:43.008Z,13.93
2023-03-18T05:06:31.667Z,14.07
2023-03-18T05:07:03.499Z,13.57
2023-03-18T05:07:35.460Z,13.57
2023-03-18T05:08:07.833Z,13.47
2023-03-18T05:08:39.895Z,14.50
2023-03-18T05:09:13.317Z,14.80
2023-03-18T05:09:45.078Z,13.93
2023-03-18T05:10:17.055Z,14.50
2023-03-18T05:10:50.285Z,14.20
2023-03-18T05:11:22.079Z,14.17
2023-03-18T05:11:54.422Z,13.27
2023-03-18T05:12:26.589Z,13.10
2023-03-18T05:12:58.301Z,13.67
2023-03-18T05:13:30.068Z,13.83
2023-03-18T05:14:01.982Z,13.97
2023-03-18T05:14:34.082Z,14.07
2023-03-18T05:15:07.102Z,14.20
2023-03-18T05:15:38.893Z,14.83
2023-03-18T05:16:11.107Z,15.37
2023-03-18T05:16:43.409Z,14.47
2023-03-18T05:17:16.110Z,14.20
2023-03-18T05:17:47.917Z,14.20
2023-03-18T05:18:20.378Z,15.13
2023-03-18T05:18:52.900Z,14.40
2023-03-18T05:19:25.417Z,14.43
2023-03-18T05:19:57.404Z,14.93
2023-03-18T05:20:29.144Z,14.30
2023-03-18T05:21:00.896Z,14.73
2023-03-18T05:21:33.208Z,15.17
2023-03-18T05:22:04.912Z,15.87
2023-03-18T05:22:37.112Z,15.13
2023-03-18T05:23:08.914Z,15.53
2023-03-18T05:23:41.175Z,15.73
2023-03-18T05:24:12.919Z,16.27
2023-03-18T05:24:48.511Z,16.13
2023-03-18T05:25:21.442Z,15.67
2023-03-18T05:25:53.135Z,16.30
2023-03-18T05:26:24.917Z,16.47
2023-03-18T05:26:57.475Z,15.70
2023-03-18T05:27:29.874Z,14.60
2023-03-18T05:28:02.940Z,14.83
2023-03-18T05:28:34.757Z,14.97
2023-03-18T05:29:06.504Z,15.10
2023-03-18T05:29:38.600Z,15.00
2023-03-18T05:30:11.305Z,14.83
2023-03-18T05:30:43.269Z,15.27
2023-03-18T05:31:15.061Z,15.83
2023-03-18T05:31:46.852Z,16.63
2023-03-18T05:32:19.539Z,16.07
2023-03-18T05:32:51.374Z,15.57
2023-03-18T05:33:23.380Z,15.47
2023-03-18T05:33:55.243Z,15.53
2023-03-18T05:34:27.591Z,16.57
2023-03-18T05:34:59.435Z,16.60
2023-03-18T05:35:32.073Z,16.77
2023-03-18T05:36:04.263Z,16.50
2023-03-18T05:36:36.791Z,15.87
2023-03-18T05:37:12.294Z,15.83
2023-03-18T05:37:44.038Z,15.57
2023-03-18T05:38:16.022Z,15.87
2023-03-18T05:38:47.881Z,15.93
2023-03-18T05:39:19.612Z,18.10
2023-03-18T05:39:51.385Z,16.70
2023-03-18T05:40:24.201Z,17.27
2023-03-18T05:40:56.021Z,17.90
2023-03-18T05:41:27.722Z,17.77
2023-03-18T05:42:00.372Z,16.63
2023-03-18T05:42:32.174Z,17.47
2023-03-18T05:43:04.476Z,16.77
2023-03-18T05:43:36.244Z,17.73
2023-03-18T05:44:08.301Z,16.67
2023-03-18T05:44:40.492Z,16.37
2023-03-18T05:45:12.828Z,15.97
2023-03-18T05:45:44.584Z,15.80
2023-03-18T05:46:16.644Z,16.57
2023-03-18T05:46:48.432Z,16.50
2023-03-18T05:47:20.384Z,16.83
2023-03-18T05:47:52.931Z,15.67
2023-03-18T05:48:25.727Z,16.27
2023-03-18T05:48:57.967Z,17.10
2023-03-18T05:49:30.082Z,17.13
2023-03-18T05:50:03.188Z,16.97
2023-03-18T05:50:37.917Z,16.00
2023-03-18T05:51:09.788Z,15.43
2023-03-18T05:51:41.498Z,16.57
2023-03-18T05:52:13.225Z,16.73
2023-03-18T05:52:45.380Z,16.70
2023-03-18T05:53:17.229Z,17.03
2023-03-18T05:53:49.443Z,16.97
2023-03-18T05:54:21.345Z,15.93
2023-03-18T05:54:54.394Z,16.47
2023-03-18T05:55:28.283Z,16.23
2023-03-18T05:56:00.673Z,16.07
2023-03-18T05:56:32.807Z,15.73
2023-03-18T05:57:04.626Z,15.67
2023-03-18T05:57:36.435Z,14.90
2023-03-18T05:58:08.296Z,15.53
2023-03-18T05:58:40.369Z,15.37
2023-03-18T05:59:14.354Z,15.13
2023-03-18T05:59:46.588Z,15.03
2023-03-18T06:00:18.828Z,15.20
2023-03-18T06:00:50.668Z,15.30
2023-03-18T06:01:22.521Z,15.70
2023-03-18T06:01:54.662Z,16.93
2023-03-18T06:02:27.871Z,16.07
2023-03-18T06:03:01.791Z,17.10
2023-03-18T06:03:34.841Z,17.37
2023-03-18T06:04:08.862Z,16.10
2023-03-18T06:04:40.629Z,14.90
2023-03-18T06:05:12.980Z,15.57
2023-03-18T06:05:44.742Z,15.10
2023-03-18T06:06:16.911Z,15.73
2023-03-18T06:06:49.759Z,15.40
2023-03-18T06:07:21.736Z,16.33
2023-03-18T06:07:54.945Z,15.53
2023-03-18T06:08:26.674Z,15.57
2023-03-18T06:09:00.974Z,15.53
2023-03-18T06:09:35.776Z,15.07
2023-03-18T06:10:08.418Z,15.83
2023-03-18T06:10:40.382Z,15.23
2023-03-18T06:11:12.644Z,15.40
2023-03-18T06:11:45.603Z,15.47
2023-03-18T06:12:17.676Z,14.87
2023-03-18T06:12:50.749Z,14.93
2023-03-18T06:13:22.624Z,14.57
2023-03-18T06:13:54.533Z,14.57
2023-03-18T06:14:29.840Z,15.03
2023-03-18T06:15:01.573Z,14.27
2023-03-18T06:15:33.826Z,15.57
2023-03-18T06:16:07.378Z,14.77
2023-03-18T06:16:39.247Z,15.07
2023-03-18T06:17:11.108Z,14.97
2023-03-18T06:17:42.986Z,14.27
2023-03-18T06:18:14.977Z,15.63
2023-03-18T06:18:46.755Z,15.57
2023-03-18T06:19:19.223Z,14.13
2023-03-18T06:19:51.197Z,13.50
2023-03-18T06:20:23.519Z,14.83
2023-03-18T06:20:56.107Z,15.60
2023-03-18T06:21:28.726Z,15.30
2023-03-18T06:22:00.441Z,14.97
2023-03-18T06:22:32.636Z,14.60
2023-03-18T06:23:05.397Z,14.73
2023-03-18T06:23:37.759Z,14.70
2023-03-18T06:24:09.749Z,14.73
2023-03-18T06:24:41.858Z,15.37
2023-03-18T06:25:13.784Z,15.17
2023-03-18T06:25:46.796Z,15.73
2023-03-18T06:26:18.753Z,16.50
2023-03-18T06:26:50.487Z,15.80
2023-03-18T06:27:22.406Z,15.33
2023-03-18T06:27:54.233Z,15.07
2023-03-18T06:28:26.414Z,15.33
2023-03-18T06:28:59.092Z,15.53
2023-03-18T06:29:31.682Z,16.00
2023-03-18T06:30:04.776Z,15.63
2023-03-18T06:30:37.287Z,15.73
2023-03-18T06:31:10.838Z,14.53
2023-03-18T06:31:42.663Z,14.67
2023-03-18T06:32:14.584Z,14.47
2023-03-18T06:32:46.430Z,16.20
2023-03-18T06:33:18.372Z,16.67
2023-03-18T06:33:50.832Z,15.63
2023-03-18T06:34:22.639Z,15.93
2023-03-18T06:34:54.662Z,16.37
2023-03-18T06:35:28.336Z,16.93
2023-03-18T06:36:02.464Z,15.87
2023-03-18T06:36:34.525Z,16.83
2023-03-18T06:37:06.838Z,17.43
2023-03-18T06:37:40.132Z,17.77
2023-03-18T06:38:14.389Z,17.30
2023-03-18T06:38:46.293Z,17.60
2023-03-18T06:39:19.926Z,16.77
2023-03-18T06:39:51.682Z,17.23
2023-03-18T06:40:24.791Z,17.37
2023-03-18T06:40:56.844Z,16.17
2023-03-18T06:41:28.623Z,15.47
2023-03-18T06:42:01.231Z,16.03
2023-03-18T06:42:33.416Z,17.53
2023-03-18T06:43:05.195Z,15.93
2023-03-18T06:43:37.635Z,16.10
2023-03-18T06:44:09.328Z,16.73
2023-03-18T06:44:44.517Z,16.57
2023-03-18T06:45:17.193Z,16.67
2023-03-18T06:45:48.978Z,17.80
2023-03-18T06:46:20.871Z,16.87
2023-03-18T06:46:53.803Z,17.60
2023-03-18T06:47:25.631Z,17.10
2023-03-18T06:47:57.436Z,16.57
2023-03-18T06:48:29.127Z,18.17
2023-03-18T06:49:01.557Z,18.90
2023-03-18T06:49:33.280Z,18.40
2023-03-18T06:50:05.974Z,17.93
2023-03-18T06:50:39.755Z,18.03
2023-03-18T06:51:11.565Z,18.90
2023-03-18T06:51:43.950Z,18.53
2023-03-18T06:52:15.924Z,18.03
2023-03-18T06:52:48.156Z,18.30
2023-03-18T06:53:20.286Z,18.60
2023-03-18T06:53:52.000Z,17.80
2023-03-18T06:54:24.071Z,19.53
2023-03-18T06:54:55.823Z,19.70
2023-03-18T06:55:28.148Z,19.57
2023-03-18T06:56:00.381Z,19.43
2023-03-18T06:56:34.426Z,19.67
2023-03-18T06:57:06.644Z,18.73
2023-03-18T06:57:39.098Z,19.30
2023-03-18T06:58:10.938Z,19.77
2023-03-18T06:58:43.182Z,18.60
2023-03-18T06:59:15.563Z,19.60
2023-03-18T06:59:48.125Z,18.30
2023-03-18T07:00:21.924Z,18.23
2023-03-18T07:00:54.046Z,18.77
2023-03-18T07:01:25.956Z,21.63
2023-03-18T07:01:58.801Z,20.10
2023-03-18T07:02:30.578Z,19.73
2023-03-18T07:03:02.463Z,20.20
2023-03-18T07:03:35.030Z,20.27
2023-03-18T07:04:07.097Z,19.67
2023-03-18T07:04:39.027Z,19.47
2023-03-18T07:05:10.939Z,19.43
2023-03-18T07:05:43.083Z,19.47
2023-03-18T07:06:15.400Z,19.40
2023-03-18T07:06:47.105Z,20.67
2023-03-18T07:07:19.291Z,20.17
2023-03-18T07:07:51.200Z,21.20
2023-03-18T07:08:23.328Z,20.53
2023-03-18T07:08:55.234Z,20.23
2023-03-18T07:09:27.920Z,21.53
2023-03-18T07:10:00.795Z,19.97
2023-03-18T07:10:32.726Z,19.03